createdAt,value
2023-05-10T00:00:52.556Z,99.90
2023-05-10T00:04:14.879Z,60.20
2023-05-10T00:07:36.964Z,1.00
2023-05-10T00:10:58.973Z,99.90
2023-05-10T00:14:21.015Z,99.90
2023-05-10T00:17:43.039Z,99.90
2023-05-10T00:21:05.689Z,99.90
2023-05-10T00:24:27.793Z,99.90
2023-05-10T00:27:50.639Z,99.20
2023-05-10T00:31:12.678Z,7.20
2023-05-10T00:34:34.647Z,99.90
2023-05-10T00:37:56.784Z,99.90
2023-05-10T00:41:18.830Z,1.00
2023-05-10T00:44:41.923Z,16.10
2023-05-10T00:48:05.137Z,99.90
2023-05-10T00:51:27.355Z,99.90
2023-05-10T00:54:49.611Z,99.90
2023-05-10T00:58:13.295Z,99.90
2023-05-10T01:01:37.024Z,99.90
2023-05-10T01:04:59.172Z,99.90
2023-05-10T01:08:21.776Z,99.90
2023-05-10T01:11:43.811Z,99.90
2023-05-10T01:15:09.254Z,99.90
2023-05-10T01:18:34.072Z,99.90
2023-05-10T01:22:07.655Z,99.90
2023-05-10T01:25:54.469Z,99.90
2023-05-10T01:29:25.241Z,99.90
2023-05-10T01:36:41.479Z,99.90
2023-05-10T01:40:14.538Z,99.90
2023-05-10T01:43:56.771Z,1.00
2023-05-10T01:47:28.541Z,1.00
2023-05-10T01:50:53.091Z,1.00
2023-05-10T01:54:17.232Z,1.00
2023-05-10T01:57:41.392Z,99.90
2023-05-10T02:01:05.749Z,3.20
2023-05-10T02:04:29.012Z,1.00
2023-05-10T02:07:52.591Z,1.00
2023-05-10T02:11:15.268Z,99.90
2023-05-10T02:14:38.481Z,99.90
2023-05-10T02:18:02.567Z,99.90
2023-05-10T02:21:26.682Z,1.00
2023-05-10T02:24:50.716Z,1.00
2023-05-10T02:28:14.403Z,1.00
2023-05-10T02:31:37.096Z,9.90
2023-05-10T02:35:02.986Z,52.80
2023-05-10T02:38:26.876Z,99.90
2023-05-10T02:41:51.129Z,99.90
2023-05-10T02:45:16.465Z,99.90
2023-05-10T02:48:39.335Z,99.90
2023-05-10T02:52:05.903Z,99.90
2023-05-10T02:55:33.726Z,99.90
2023-05-10T02:58:56.478Z,99.90
2023-05-10T03:02:19.409Z,99.90
2023-05-10T03:05:41.543Z,99.90
2023-05-10T03:09:04.531Z,99.90
2023-05-10T03:12:38.291Z,99.90
2023-05-10T03:16:17.788Z,99.90
2023-05-10T03:19:57.940Z,99.90
2023-05-10T03:23:44.615Z,99.90
2023-05-10T03:27:08.355Z,99.90
2023-05-10T03:30:31.365Z,99.90
2023-05-10T03:33:54.141Z,99.90
2023-05-10T03:37:20.540Z,99.90
2023-05-10T03:40:42.595Z,99.90
2023-05-10T03:44:04.878Z,99.90
2023-05-10T03:47:27.118Z,99.90
2023-05-10T03:50:50.490Z,99.90
2023-05-10T03:54:12.873Z,99.90
2023-05-10T03:57:35.362Z,99.90
2023-05-10T04:00:57.400Z,99.90
2023-05-10T04:04:19.875Z,99.90
2023-05-10T04:07:45.389Z,99.90
2023-05-10T04:11:12.100Z,99.90
2023-05-10T04:14:34.465Z,99.90
2023-05-10T04:17:56.486Z,99.90
2023-05-10T04:21:18.769Z,99.90
2023-05-10T04:24:40.878Z,99.90
2023-05-10T04:28:02.856Z,99.90
2023-05-10T04:31:25.053Z,99.90
2023-05-10T04:34:47.838Z,99.90
2023-05-10T04:38:09.886Z,99.90
2023-05-10T04:41:31.976Z,99.90
2023-05-10T04:44:54.051Z,99.90
2023-05-10T04:48:16.922Z,99.90
2023-05-10T04:51:39.258Z,99.90
2023-05-10T04:55:01.684Z,99.90
2023-05-10T04:58:23.701Z,99.90
2023-05-10T05:01:45.912Z,99.90
2023-05-10T05:05:08.687Z,99.90
2023-05-10T05:08:30.692Z,99.90
2023-05-10T05:11:52.673Z,99.90
2023-05-10T05:15:16.267Z,99.90
2023-05-10T05:18:38.269Z,99.90
2023-05-10T05:22:00.240Z,99.90
2023-05-10T05:25:22.324Z,99.90
2023-05-10T05:28:44.419Z,99.90
2023-05-10T05:32:06.865Z,99.90
2023-05-10T05:35:28.880Z,99.90
2023-05-10T05:38:50.948Z,99.90
2023-05-10T05:42:13.738Z,99.90
2023-05-10T05:45:36.001Z,99.90
2023-05-10T05:48:58.123Z,99.90
2023-05-10T05:52:20.311Z,99.90
2023-05-10T05:55:56.133Z,99.90
2023-05-10T05:59:18.236Z,99.90
2023-05-10T06:02:40.472Z,99.90
2023-05-10T06:06:03.796Z,99.90
2023-05-10T06:09:25.839Z,99.90
2023-05-10T06:12:47.927Z,99.90
2023-05-10T06:16:10.042Z,99.90
2023-05-10T06:19:32.052Z,99.90
2023-05-10T06:22:54.088Z,99.90
2023-05-10T06:26:16.040Z,99.90
2023-05-10T06:29:38.089Z,99.90
2023-05-10T06:33:00.330Z,99.90
2023-05-10T06:36:22.977Z,99.90
2023-05-10T06:39:45.018Z,99.90
2023-05-10T06:43:06.944Z,99.90
2023-05-10T06:46:29.085Z,99.90
2023-05-10T06:49:51.115Z,99.90
2023-05-10T06:53:13.119Z,99.90
2023-05-10T06:56:35.118Z,99.90
2023-05-10T06:59:57.309Z,99.90
2023-05-10T07:03:19.491Z,99.90
2023-05-10T07:06:41.497Z,99.90
2023-05-10T07:10:04.122Z,99.90
2023-05-10T07:13:26.209Z,99.90
2023-05-10T07:16:48.278Z,99.90
2023-05-10T07:20:10.469Z,99.90
2023-05-10T07:23:32.601Z,99.90
2023-05-10T07:26:54.562Z,99.90
2023-05-10T07:30:16.612Z,99.90
2023-05-10T07:33:38.795Z,99.90
2023-05-10T07:37:00.845Z,99.90
2023-05-10T07:40:22.965Z,99.90
2023-05-10T07:43:45.273Z,99.90
2023-05-10T07:47:07.351Z,99.90
2023-05-10T07:50:29.689Z,99.90
2023-05-10T07:53:51.863Z,99.90
2023-05-10T07:57:15.631Z,99.90
2023-05-10T08:00:40.554Z,99.90
2023-05-10T08:04:03.116Z,99.90
2023-05-10T08:07:26.119Z,99.90
2023-05-10T08:10:48.083Z,99.90
2023-05-10T08:14:10.156Z,99.90
2023-05-10T08:17:32.190Z,99.90
2023-05-10T08:20:54.162Z,99.90
2023-05-10T08:24:16.355Z,99.90
2023-05-10T08:27:38.399Z,99.90
2023-05-10T08:31:00.498Z,99.90
2023-05-10T08:34:22.820Z,99.90
2023-05-10T08:37:44.910Z,99.90
2023-05-10T08:41:07.416Z,99.90
2023-05-10T08:44:31.308Z,99.90
2023-05-10T08:47:54.137Z,99.90
2023-05-10T08:51:19.693Z,99.90
2023-05-10T08:54:42.610Z,99.90
2023-05-10T08:58:05.444Z,99.90
2023-05-10T09:01:28.865Z,99.90
2023-05-10T09:04:51.055Z,99.90
2023-05-10T09:08:14.022Z,99.90
2023-05-10T09:11:36.375Z,99.90
2023-05-10T09:15:00.836Z,99.90
2023-05-10T09:18:22.927Z,99.90
2023-05-10T09:21:45.035Z,99.90
2023-05-10T09:25:09.555Z,99.90
2023-05-10T09:28:53.477Z,99.90
2023-05-10T09:32:16.031Z,99.90
2023-05-10T09:35:41.202Z,99.90
2023-05-10T09:39:04.278Z,99.90
2023-05-10T09:42:26.669Z,99.90
2023-05-10T09:45:51.242Z,99.90
2023-05-10T09:49:15.827Z,99.90
2023-05-10T09:52:51.948Z,99.90
2023-05-10T09:56:14.115Z,99.90
2023-05-10T09:59:36.524Z,99.90
2023-05-10T10:03:01.020Z,99.90
2023-05-10T10:06:30.105Z,99.90
2023-05-10T10:09:53.010Z,99.90
2023-05-10T10:13:15.356Z,99.90
2023-05-10T10:16:43.550Z,99.90
2023-05-10T10:20:12.417Z,99.90
2023-05-10T10:23:34.452Z,99.90
2023-05-10T10:27:04.208Z,99.90
2023-05-10T10:30:44.657Z,99.90
2023-05-10T10:34:23.226Z,99.90
2023-05-10T10:37:51.821Z,99.90
2023-05-10T10:41:33.756Z,99.90
2023-05-10T10:45:13.549Z,99.90
2023-05-10T10:48:35.543Z,99.90
2023-05-10T10:52:21.773Z,99.90
2023-05-10T10:55:50.374Z,99.90
2023-05-10T10:59:12.322Z,99.90
2023-05-10T11:02:52.892Z,99.90
2023-05-10T11:06:29.389Z,99.90
2023-05-10T11:09:51.413Z,99.90
2023-05-10T11:13:13.811Z,99.90
2023-05-10T11:16:45.819Z,99.90
2023-05-10T11:20:11.487Z,99.90
2023-05-10T11:23:48.512Z,99.90
2023-05-10T11:27:12.195Z,99.90
2023-05-10T11:30:34.205Z,99.90
2023-05-10T11:33:58.752Z,99.90
2023-05-10T11:37:20.872Z,99.90
2023-05-10T11:40:43.677Z,99.90
2023-05-10T11:44:05.965Z,99.90
2023-05-10T11:47:28.017Z,99.90
2023-05-10T11:50:50.084Z,99.90
2023-05-10T11:54:12.536Z,99.90
2023-05-10T11:57:36.337Z,99.90
2023-05-10T12:00:59.758Z,99.90
2023-05-10T12:04:22.712Z,99.90
2023-05-10T12:07:44.880Z,99.90
2023-05-10T12:11:08.980Z,99.90
2023-05-10T12:14:36.195Z,99.90
2023-05-10T12:17:58.639Z,99.90
2023-05-10T12:21:22.139Z,99.90
2023-05-10T12:24:46.730Z,99.90
2023-05-10T12:28:10.645Z,99.90
2023-05-10T12:31:32.638Z,99.90
2023-05-10T12:34:54.696Z,99.90
2023-05-10T12:38:33.061Z,99.90
2023-05-10T12:41:55.134Z,99.90
2023-05-10T12:45:19.180Z,99.90
2023-05-10T12:48:43.168Z,99.90
2023-05-10T12:52:05.399Z,99.90
2023-05-10T12:55:27.354Z,99.90
2023-05-10T12:58:49.413Z,99.90
2023-05-10T13:02:11.597Z,99.90
2023-05-10T13:05:37.503Z,99.90
2023-05-10T13:08:59.587Z,99.90
2023-05-10T13:12:21.633Z,99.90
2023-05-10T13:15:43.601Z,99.90
2023-05-10T13:19:08.716Z,99.90
2023-05-10T13:22:39.908Z,99.90
2023-05-10T13:26:02.608Z,99.90
2023-05-10T13:29:24.662Z,99.90
2023-05-10T13:32:46.860Z,99.90
2023-05-10T13:36:09.195Z,99.90
2023-05-10T13:39:34.376Z,99.90
2023-05-10T13:42:56.303Z,99.90
2023-05-10T13:46:18.458Z,99.90
2023-05-10T13:49:40.500Z,99.90
2023-05-10T13:53:02.594Z,99.90
2023-05-10T13:56:24.883Z,99.90
2023-05-10T13:59:46.891Z,99.90
2023-05-10T14:03:12.069Z,99.90
2023-05-10T14:06:34.972Z,99.90
2023-05-10T14:09:56.911Z,99.90
2023-05-10T14:13:18.858Z,99.90
2023-05-10T14:16:45.692Z,99.90
2023-05-10T14:20:08.598Z,99.90
2023-05-10T14:23:31.250Z,99.90
2023-05-10T14:26:54.965Z,99.90
2023-05-10T14:30:17.001Z,99.90
2023-05-10T14:33:39.067Z,99.90
2023-05-10T14:39:45.727Z,99.90
2023-05-10T14:43:28.742Z,99.90
2023-05-10T14:46:50.817Z,99.90
2023-05-10T14:50:18.918Z,99.90
2023-05-10T14:53:46.880Z,99.90
2023-05-10T14:57:08.814Z,99.90
2023-05-10T15:00:31.134Z,99.90
2023-05-10T15:03:53.633Z,99.90
2023-05-10T15:07:17.365Z,99.90
2023-05-10T15:10:39.966Z,99.90
2023-05-10T15:14:02.923Z,99.90
2023-05-10T15:17:24.980Z,99.90
2023-05-10T15:20:47.019Z,99.90
2023-05-10T15:24:09.724Z,99.90
2023-05-10T15:27:32.032Z,99.90
2023-05-10T15:30:54.035Z,99.90
2023-05-10T15:34:16.844Z,99.90
2023-05-10T15:37:39.050Z,99.90
2023-05-10T15:41:01.400Z,99.90
2023-05-10T15:44:23.380Z,99.90
2023-05-10T15:47:45.791Z,99.90
2023-05-10T15:51:08.023Z,99.90
2023-05-10T15:54:29.981Z,99.90
2023-05-10T15:57:51.940Z,99.90
2023-05-10T16:01:13.931Z,99.90
2023-05-10T16:04:35.927Z,99.90
2023-05-10T16:07:57.955Z,99.90
2023-05-10T16:11:19.975Z,99.90
2023-05-10T16:14:41.941Z,99.90
2023-05-10T16:18:04.166Z,99.90
2023-05-10T16:21:26.414Z,99.90
2023-05-10T16:24:48.753Z,99.90
2023-05-10T16:28:10.836Z,99.90
2023-05-10T16:31:33.144Z,99.90
2023-05-10T16:34:55.402Z,99.90
2023-05-10T16:38:17.360Z,99.90
2023-05-10T16:41:39.360Z,99.90
2023-05-10T16:45:07.711Z,99.90
2023-05-10T16:48:29.719Z,99.90
2023-05-10T16:51:51.683Z,99.90
2023-05-10T16:55:13.773Z,99.90
2023-05-10T16:58:35.735Z,99.90
2023-05-10T17:01:57.902Z,99.90
2023-05-10T17:05:20.124Z,99.90
2023-05-10T17:08:42.224Z,99.90
2023-05-10T17:12:04.673Z,99.90
2023-05-10T17:15:26.931Z,99.90
2023-05-10T17:18:49.491Z,99.90
2023-05-10T17:22:12.921Z,99.90
2023-05-10T17:25:36.015Z,99.90
2023-05-10T17:28:58.841Z,99.90
2023-05-10T17:32:20.948Z,99.90
2023-05-10T17:35:46.413Z,99.90
2023-05-10T17:39:09.333Z,99.90
2023-05-10T17:42:31.710Z,99.90
2023-05-10T17:45:53.661Z,99.90
2023-05-10T17:49:15.608Z,99.90
2023-05-10T17:52:38.012Z,99.90
2023-05-10T18:08:55.653Z,99.90
2023-05-10T18:12:40.667Z,99.90
2023-05-10T18:16:05.710Z,99.90
2023-05-10T18:19:27.714Z,99.90
2023-05-10T18:22:49.773Z,99.90
2023-05-10T18:26:13.029Z,99.90
2023-05-10T18:29:35.259Z,99.90
2023-05-10T18:32:58.099Z,99.90
2023-05-10T18:36:20.189Z,99.90
2023-05-10T18:39:42.441Z,99.90
2023-05-10T18:43:04.655Z,99.90
2023-05-10T18:46:27.304Z,99.90
2023-05-10T18:49:49.254Z,99.90
2023-05-10T18:53:11.207Z,99.90
2023-05-10T18:56:33.822Z,99.90
2023-05-10T18:59:55.942Z,99.90
2023-05-10T19:03:17.923Z,99.90
2023-05-10T19:06:41.604Z,99.90
2023-05-10T19:10:03.840Z,99.90
2023-05-10T19:13:27.681Z,99.90
2023-05-10T19:16:50.880Z,99.90
2023-05-10T19:20:13.055Z,99.90
2023-05-10T19:23:35.248Z,99.90
2023-05-10T19:26:57.933Z,99.90
2023-05-10T19:30:19.914Z,99.90
2023-05-10T19:33:41.988Z,99.90
2023-05-10T19:37:04.106Z,99.90
2023-05-10T19:40:26.070Z,99.90
2023-05-10T19:43:48.126Z,99.90
2023-05-10T19:47:11.909Z,99.90
2023-05-10T19:50:34.017Z,99.90
2023-05-10T19:53:55.908Z,99.90
2023-05-10T19:57:17.856Z,99.90
2023-05-10T20:00:39.957Z,99.90
2023-05-10T20:04:01.997Z,99.90
2023-05-10T20:07:23.962Z,99.90
2023-05-10T20:10:46.073Z,99.90
2023-05-10T20:14:09.126Z,99.90
2023-05-10T20:17:31.276Z,99.90
2023-05-10T20:20:55.036Z,99.90
2023-05-10T20:24:17.053Z,99.90
2023-05-10T20:27:39.062Z,99.90
2023-05-10T20:31:02.062Z,99.90
2023-05-10T20:34:24.133Z,99.90
2023-05-10T20:37:48.346Z,99.90
2023-05-10T20:41:10.450Z,99.90
2023-05-10T20:44:32.489Z,99.90
2023-05-10T20:47:54.504Z,99.90
2023-05-10T20:51:16.425Z,99.90
2023-05-10T20:54:38.400Z,99.90
2023-05-10T20:58:01.553Z,99.90
2023-05-10T21:01:25.550Z,99.90
2023-05-10T21:04:47.611Z,99.90
2023-05-10T21:08:09.633Z,99.90
2023-05-10T21:11:36.066Z,99.90
2023-05-10T21:14:58.208Z,99.90
2023-05-10T21:18:20.392Z,99.90
2023-05-10T21:21:42.373Z,99.90
2023-05-10T21:25:04.610Z,99.90
2023-05-10T21:28:26.602Z,99.90
2023-05-10T21:31:48.845Z,99.90
2023-05-10T21:35:11.036Z,99.90
2023-05-10T21:38:33.164Z,99.90
2023-05-10T21:41:55.126Z,99.90
2023-05-10T21:45:18.026Z,99.90
2023-05-10T21:48:40.132Z,99.90
2023-05-10T21:52:02.149Z,99.90
2023-05-10T21:55:24.275Z,99.90
2023-05-10T21:58:46.768Z,99.90
2023-05-10T22:02:08.826Z,99.90
2023-05-10T22:05:30.902Z,99.90
2023-05-10T22:08:53.060Z,99.90
2023-05-10T22:12:15.070Z,99.90
2023-05-10T22:15:37.118Z,99.90
2023-05-10T22:18:59.173Z,99.90
2023-05-10T22:22:22.436Z,99.90
2023-05-10T22:25:44.379Z,99.90
2023-05-10T22:29:06.589Z,99.90
2023-05-10T22:32:28.643Z,99.90
2023-05-10T22:35:50.577Z,99.90
2023-05-10T22:39:12.770Z,99.90
2023-05-10T22:42:35.055Z,99.90
2023-05-10T22:45:56.956Z,99.90
2023-05-10T22:49:18.902Z,99.90
2023-05-10T22:52:40.913Z,99.90
2023-05-10T22:56:03.144Z,99.90
2023-05-10T22:59:25.131Z,99.90
2023-05-10T23:02:47.280Z,99.90
2023-05-10T23:06:09.366Z,99.90
2023-05-10T23:09:31.308Z,99.90
2023-05-10T23:12:53.306Z,99.90
2023-05-10T23:16:15.245Z,99.90
2023-05-10T23:19:37.290Z,99.90
2023-05-10T23:22:59.313Z,99.90
2023-05-10T23:26:21.868Z,99.90
2023-05-10T23:29:43.821Z,99.90
2023-05-10T23:33:06.073Z,99.90
2023-05-10T23:36:28.049Z,99.90
2023-05-10T23:39:49.990Z,99.90
2023-05-10T23:43:11.987Z,99.90
2023-05-10T23:46:33.912Z,99.90
2023-05-10T23:49:56.455Z,99.90
2023-05-10T23:53:18.582Z,99.90
2023-05-10T23:56:40.459Z,99.90
